Time;durP1;ratioP1;P1;durP2;ratioP2;P2;SDS_P1;SDS_P2;PMS_P1;PMS_P2;Temp;Humidity;BMP_temperature;BMP_pressure;BME280_temperature;BME280_humidity;BME280_pressure;Samples;Min_cycle;Max_cycle;Signal;HPM_P1;HPM_P2
2023/06/07 00:01:42;;;;;;;27.05;10.35;;;;;;;12.48;82.09;102364.00;6097302;19;20115;-70
2023/06/07 00:03:48;;;;;;;26.50;10.45;;;;;;;12.52;81.71;102368.31;6097706;19;20098;-70
2023/06/07 00:05:53;;;;;;;26.45;11.88;;;;;;;12.57;81.84;102360.28;6095335;19;20468;-70
2023/06/07 00:07:58;;;;;;;31.85;10.65;;;;;;;12.50;81.70;102365.69;6093931;19;20002;-71
2023/06/07 00:10:06;;;;;;;25.23;9.90;;;;;;;12.54;81.79;102368.28;6097974;19;20013;-70
2023/06/07 00:12:12;;;;;;;25.48;9.43;;;;;;;12.49;82.00;102366.59;6096303;19;20010;-70
2023/06/07 00:14:23;;;;;;;28.10;11.00;;;;;;;12.49;81.92;102365.75;6101462;19;20502;-74
2023/06/07 00:16:28;;;;;;;25.45;10.80;;;;;;;12.38;82.34;102360.72;6100012;19;20491;-73
2023/06/07 00:18:34;;;;;;;28.73;10.32;;;;;;;12.45;82.44;102358.81;6099690;19;20010;-74
2023/06/07 00:20:45;;;;;;;25.92;9.77;;;;;;;12.40;82.24;102369.47;6101077;19;20565;-73
2023/06/07 00:22:55;;;;;;;29.92;11.10;;;;;;;12.45;81.99;102362.34;6097393;19;20397;-73
2023/06/07 00:25:00;;;;;;;30.25;11.68;;;;;;;12.39;81.88;102365.09;6103235;19;20665;-73
2023/06/07 00:27:05;;;;;;;33.30;10.73;;;;;;;12.35;82.35;102365.19;6098891;19;20023;-75
2023/06/07 00:29:10;;;;;;;27.33;10.90;;;;;;;12.40;82.72;102363.31;6100571;19;20293;-73
2023/06/07 00:31:18;;;;;;;26.50;8.98;;;;;;;12.45;82.59;102366.72;6100778;19;20011;-73
2023/06/07 00:33:23;;;;;;;24.02;10.48;;;;;;;12.48;82.15;102364.00;6095032;19;20954;-73
2023/06/07 00:35:28;;;;;;;25.17;10.23;;;;;;;12.47;82.52;102360.50;6094886;19;20007;-73
2023/06/07 00:37:35;;;;;;;26.90;9.65;;;;;;;12.39;82.49;102357.19;6095091;19;19999;-72
2023/06/07 00:39:40;;;;;;;26.10;10.30;;;;;;;12.42;82.17;102362.38;6096052;19;20006;-72
2023/06/07 00:41:45;;;;;;;25.50;9.93;;;;;;;12.42;82.52;102362.38;6098286;19;20076;-75
2023/06/07 00:43:50;;;;;;;26.65;9.63;;;;;;;12.40;82.62;102352.78;6098772;19;20003;-73
2023/06/07 00:45:55;;;;;;;28.67;10.68;;;;;;;12.33;82.61;102354.69;6097651;19;20024;-74
2023/06/07 00:48:04;;;;;;;33.63;13.13;;;;;;;12.32;83.00;102358.22;6098787;19;20052;-73
2023/06/07 00:50:10;;;;;;;26.65;10.43;;;;;;;12.36;83.01;102364.31;6098290;19;20010;-74
2023/06/07 00:52:15;;;;;;;25.95;10.23;;;;;;;12.39;82.88;102364.22;6094800;19;20473;-73
2023/06/07 00:54:22;;;;;;;25.85;10.60;;;;;;;12.38;83.12;102360.72;6095895;19;20015;-73
2023/06/07 00:56:27;;;;;;;24.40;9.32;;;;;;;12.37;83.13;102364.25;6099769;19;20010;-73
2023/06/07 00:58:32;;;;;;;25.58;10.07;;;;;;;12.34;83.17;102364.34;6095957;19;20511;-72
2023/06/07 01:00:38;;;;;;;23.17;9.63;;;;;;;12.30;83.29;102368.81;6094358;19;20006;-73
2023/06/07 01:02:46;;;;;;;23.08;9.65;;;;;;;12.33;83.16;102359.97;6095423;19;20007;-74
2023/06/07 01:04:55;;;;;;;22.83;10.48;;;;;;;12.30;83.43;102358.28;6096141;19;20015;-74
2023/06/07 01:07:02;;;;;;;23.48;8.95;;;;;;;12.33;83.22;102359.13;6076675;19;20436;-73
2023/06/07 01:09:13;;;;;;;24.45;10.63;;;;;;;12.35;83.41;102354.66;6094880;19;20010;-73
2023/06/07 01:11:21;;;;;;;25.08;9.60;;;;;;;12.32;83.36;102360.84;6096757;19;20593;-73
2023/06/07 01:13:26;;;;;;;17.73;8.60;;;;;;;12.21;83.80;102360.25;6097097;19;20023;-73
2023/06/07 01:15:32;;;;;;;20.17;9.18;;;;;;;12.24;83.77;102358.44;6094239;19;20027;-73
2023/06/07 01:17:40;;;;;;;20.73;9.07;;;;;;;12.23;83.68;102361.09;6089787;19;20726;-73
2023/06/07 01:19:51;;;;;;;25.73;9.70;;;;;;;12.22;83.90;102362.00;6097515;19;20486;-73
2023/06/07 01:22:05;;;;;;;24.70;10.60;;;;;;;12.24;84.09;102360.16;6096745;19;20455;-75
2023/06/07 01:24:13;;;;;;;21.48;9.02;;;;;;;12.16;84.10;102365.63;6097700;19;20010;-72
2023/06/07 01:26:19;;;;;;;25.67;9.73;;;;;;;12.23;84.15;102361.94;6091951;19;20740;-72
2023/06/07 01:28:24;;;;;;;20.48;9.02;;;;;;;12.21;83.92;102350.56;6093899;19;20102;-73
2023/06/07 01:30:33;;;;;;;21.63;8.52;;;;;;;12.20;83.97;102358.53;6096731;19;20014;-74
2023/06/07 01:32:44;;;;;;;21.15;9.07;;;;;;;12.15;84.31;102361.25;6093485;19;20022;-73
2023/06/07 01:34:54;;;;;;;19.77;8.68;;;;;;;12.13;84.14;102357.78;6100116;19;20081;-73
2023/06/07 01:37:00;;;;;;;24.10;9.13;;;;;;;12.16;84.24;102357.72;6099801;19;20014;-73
2023/06/07 01:39:10;;;;;;;20.02;8.60;;;;;;;12.09;84.32;102353.50;6102441;19;20021;-74
2023/06/07 01:41:19;;;;;;;17.23;7.88;;;;;;;12.02;84.18;102352.75;6103711;19;20485;-74
2023/06/07 01:43:24;;;;;;;18.20;8.20;;;;;;;12.02;84.25;102352.75;6105860;19;20103;-74
2023/06/07 01:45:33;;;;;;;19.45;8.23;;;;;;;11.98;84.85;102347.59;6105428;19;20040;-73
2023/06/07 01:47:39;;;;;;;20.23;8.68;;;;;;;12.02;84.39;102349.25;6111036;19;20015;-73
2023/06/07 01:49:44;;;;;;;17.60;8.27;;;;;;;12.00;84.60;102349.28;6111004;19;20006;-76
2023/06/07 01:51:50;;;;;;;19.95;9.25;;;;;;;12.01;84.76;102352.81;6114419;19;20039;-74
2023/06/07 01:53:55;;;;;;;20.20;9.15;;;;;;;12.00;84.99;102358.97;6110837;19;20610;-73
2023/06/07 01:56:10;;;;;;;22.38;8.52;;;;;;;12.01;84.83;102351.03;6109874;19;20007;-73
2023/06/07 01:58:27;;;;;;;17.30;8.15;;;;;;;11.97;84.80;102340.59;6108500;19;20031;-74
2023/06/07 02:00:37;;;;;;;18.80;6.95;;;;;;;11.91;85.43;102340.75;6104896;19;20018;-73
2023/06/07 02:02:50;;;;;;;19.42;8.82;;;;;;;11.90;85.38;102350.41;6106244;19;20014;-72
2023/06/07 02:05:04;;;;;;;18.67;7.95;;;;;;;11.92;85.15;102340.69;6099037;19;20007;-74
2023/06/07 02:07:14;;;;;;;18.92;8.43;;;;;;;11.90;85.41;102346.88;6099216;19;20014;-73
2023/06/07 02:09:26;;;;;;;16.92;7.93;;;;;;;11.90;85.34;102337.25;6099417;19;20417;-72
2023/06/07 02:11:34;;;;;;;;;;;;;;;11.85;85.29;102342.56;6095989;19;20015;-73
2023/06/07 02:13:45;;;;;;;15.68;7.28;;;;;;;11.83;85.95;102344.38;6095946;19;19954;-73
2023/06/07 02:15:50;;;;;;;21.55;9.45;;;;;;;11.80;85.75;102341.81;6097989;19;20093;-74
2023/06/07 02:17:57;;;;;;;18.67;8.75;;;;;;;11.83;85.38;102341.72;6096397;19;20031;-74
2023/06/07 02:20:03;;;;;;;19.23;8.90;;;;;;;11.74;85.28;102336.69;6096205;19;20007;-73
2023/06/07 02:22:09;;;;;;;20.15;9.35;;;;;;;11.77;85.64;102339.25;6099528;19;20006;-73
2023/06/07 02:24:13;;;;;;;18.45;8.35;;;;;;;11.71;85.42;102343.75;6097702;19;20072;-73
2023/06/07 02:26:20;;;;;;;19.33;8.02;;;;;;;11.65;85.68;102339.50;6100644;19;20013;-73
2023/06/07 02:28:25;;;;;;;20.00;8.27;;;;;;;11.57;86.40;102336.16;6096699;19;20011;-73
2023/06/07 02:30:32;;;;;;;17.08;8.30;;;;;;;11.52;86.33;102340.66;6097366;19;20049;-73
2023/06/07 02:32:38;;;;;;;17.92;7.40;;;;;;;11.52;86.45;102343.28;6098150;19;20494;-74
2023/06/07 02:34:44;;;;;;;16.95;7.47;;;;;;;11.49;86.17;102330.19;6097642;19;20432;-73
2023/06/07 02:36:49;;;;;;;14.32;7.57;;;;;;;11.45;86.42;102331.13;6099923;19;20039;-71
2023/06/07 02:38:54;;;;;;;16.60;7.82;;;;;;;11.45;86.37;102334.63;6093177;19;20014;-71
2023/06/07 02:40:59;;;;;;;15.05;8.20;;;;;;;11.41;86.56;102328.56;6098629;19;20094;-71
2023/06/07 02:43:04;;;;;;;16.15;7.60;;;;;;;11.46;86.38;102332.88;6096831;19;20512;-71
2023/06/07 02:45:11;;;;;;;15.10;7.30;;;;;;;11.48;86.69;102336.31;6098800;19;20503;-71
2023/06/07 02:47:19;;;;;;;13.60;6.88;;;;;;;11.46;86.71;102332.88;6098457;19;20010;-71
2023/06/07 02:49:24;;;;;;;15.93;7.75;;;;;;;11.48;86.80;102334.59;6099036;19;20460;-71
2023/06/07 02:51:37;;;;;;;20.05;7.03;;;;;;;11.50;86.55;102338.03;6096781;19;19998;-71
2023/06/07 02:53:42;;;;;;;13.82;7.07;;;;;;;11.47;86.77;102337.25;6095424;19;20017;-71
2023/06/07 02:55:50;;;;;;;16.35;7.45;;;;;;;11.35;87.10;102339.22;6096032;19;20034;-71
2023/06/07 02:57:55;;;;;;;17.00;6.93;;;;;;;11.51;87.09;102339.78;6096541;19;20551;-70
2023/06/07 03:00:00;;;;;;;18.77;7.65;;;;;;;11.45;87.35;102339.88;6097713;19;20051;-71
2023/06/07 03:02:06;;;;;;;14.85;7.70;;;;;;;11.51;86.90;102344.19;6098955;19;20006;-71
2023/06/07 03:04:14;;;;;;;14.90;6.78;;;;;;;11.48;87.42;102333.69;6102187;19;20023;-71
2023/06/07 03:06:19;;;;;;;15.05;7.32;;;;;;;11.52;87.25;102333.59;6099178;19;20086;-70
2023/06/07 03:08:24;;;;;;;19.52;7.97;;;;;;;11.52;87.39;102335.38;6101488;19;19998;-71
2023/06/07 03:10:29;;;;;;;14.60;6.53;;;;;;;11.51;87.04;102333.66;6101602;19;20007;-71
2023/06/07 03:12:34;;;;;;;12.05;6.38;;;;;;;11.53;87.36;102331.84;6102394;19;20515;-72
2023/06/07 03:14:41;;;;;;;17.02;7.07;;;;;;;11.49;87.19;102325.78;6103984;19;20002;-72
2023/06/07 03:16:47;;;;;;;13.73;6.60;;;;;;;11.51;87.46;102328.41;6100875;19;20014;-71
2023/06/07 03:18:53;;;;;;;15.15;7.20;;;;;;;11.53;87.64;102330.09;6102242;19;20034;-74
2023/06/07 03:21:00;;;;;;;13.88;6.47;;;;;;;11.58;87.39;102328.19;6098515;19;20010;-70
2023/06/07 03:23:06;;;;;;;14.75;6.72;;;;;;;11.57;87.38;102330.88;6097605;19;20126;-71
2023/06/07 03:25:11;;;;;;;13.77;6.95;;;;;;;11.63;87.35;102330.75;6094936;19;20632;-70
2023/06/07 03:27:22;;;;;;;13.80;6.47;;;;;;;11.63;87.47;102325.47;6100091;19;20019;-71
2023/06/07 03:29:27;;;;;;;14.05;6.82;;;;;;;11.61;87.45;102330.81;6097312;19;20732;-70
2023/06/07 03:31:32;;;;;;;11.02;5.55;;;;;;;11.64;87.59;102325.47;6097103;19;20043;-70
2023/06/07 03:33:37;;;;;;;14.20;6.00;;;;;;;11.67;87.64;102329.81;6099268;19;20555;-71
2023/06/07 03:35:44;;;;;;;15.23;6.95;;;;;;;11.69;87.66;102327.13;6098398;19;20404;-70
2023/06/07 03:37:54;;;;;;;13.13;6.07;;;;;;;11.68;87.73;102330.66;6099988;19;20009;-71
2023/06/07 03:40:05;;;;;;;17.75;6.47;;;;;;;11.71;88.04;102328.81;6097799;19;20029;-70
2023/06/07 03:42:11;;;;;;;12.80;6.22;;;;;;;11.75;88.02;102333.13;6098266;19;20074;-69
2023/06/07 03:44:19;;;;;;;12.60;6.65;;;;;;;11.74;88.03;102334.03;6098779;19;20011;-70
2023/06/07 03:46:24;;;;;;;16.05;6.28;;;;;;;11.79;88.04;102326.03;6096849;19;20019;-70
2023/06/07 03:48:31;;;;;;;15.27;6.18;;;;;;;11.89;87.71;102332.00;6100359;19;20043;-70
2023/06/07 03:50:36;;;;;;;11.52;5.80;;;;;;;11.88;87.47;102325.00;6096596;19;20036;-70
2023/06/07 03:52:41;;;;;;;12.75;5.68;;;;;;;11.91;87.59;102323.16;6092238;19;20089;-70
2023/06/07 03:54:50;;;;;;;16.35;5.80;;;;;;;11.94;87.41;102332.75;6095893;19;20085;-70
2023/06/07 03:56:57;;;;;;;14.13;6.40;;;;;;;11.96;87.15;102330.97;6099563;19;20051;-70
2023/06/07 03:59:03;;;;;;;12.60;5.95;;;;;;;12.04;87.25;102329.03;6099747;19;20007;-71
2023/06/07 04:01:08;;;;;;;12.57;5.97;;;;;;;12.02;86.98;102328.19;6094954;19;20042;-70
2023/06/07 04:03:12;;;;;;;13.80;5.70;;;;;;;12.03;86.86;102324.63;6100255;19;20055;-71
2023/06/07 04:05:18;;;;;;;12.25;6.03;;;;;;;12.08;87.33;102326.28;6100131;19;20086;-71
2023/06/07 04:07:23;;;;;;;11.70;5.85;;;;;;;12.12;86.95;102329.72;6097211;19;20010;-70
2023/06/07 04:09:27;;;;;;;16.52;6.47;;;;;;;12.11;86.64;102330.59;6095558;19;20011;-70
2023/06/07 04:11:35;;;;;;;11.98;7.30;;;;;;;12.09;87.05;102340.34;6095359;19;20365;-70
2023/06/07 04:13:40;;;;;;;14.35;6.40;;;;;;;12.17;86.42;102325.19;6098899;19;20014;-74
2023/06/07 04:15:45;;;;;;;15.77;6.35;;;;;;;12.15;86.45;102336.69;6098422;19;20018;-73
2023/06/07 04:17:50;;;;;;;12.93;6.15;;;;;;;12.17;86.66;102335.75;6096830;19;20007;-74
2023/06/07 04:19:56;;;;;;;14.98;5.85;;;;;;;12.22;86.23;102338.28;6099207;19;20589;-73
2023/06/07 04:22:04;;;;;;;15.30;6.80;;;;;;;12.28;86.27;102339.00;6097588;19;20011;-73
2023/06/07 04:24:09;;;;;;;17.50;7.00;;;;;;;12.29;86.26;102338.06;6097469;19;20426;-72
2023/06/07 04:26:19;;;;;;;13.50;6.53;;;;;;;12.32;85.69;102345.03;6097555;19;20039;-73
2023/06/07 04:28:27;;;;;;;15.95;6.18;;;;;;;12.38;85.41;102346.69;6100715;19;20065;-74
2023/06/07 04:30:42;;;;;;;11.73;6.03;;;;;;;12.40;85.52;102348.38;6099828;19;20006;-69
2023/06/07 04:32:47;;;;;;;16.02;6.07;;;;;;;12.42;85.33;102338.66;6099100;19;20014;-70
2023/06/07 04:34:55;;;;;;;13.25;6.18;;;;;;;12.44;85.25;102341.25;6098724;19;20015;-69
2023/06/07 04:37:03;;;;;;;12.43;5.63;;;;;;;12.51;85.13;102343.72;6098592;19;20014;-69
2023/06/07 04:39:09;;;;;;;17.60;6.70;;;;;;;12.53;84.85;102343.66;6099752;19;20089;-70
2023/06/07 04:41:15;;;;;;;14.80;6.28;;;;;;;12.54;84.89;102345.41;6097956;19;20035;-69
2023/06/07 04:43:23;;;;;;;12.82;6.97;;;;;;;12.56;84.34;102348.88;6096899;19;20027;-69
2023/06/07 04:45:31;;;;;;;13.73;7.55;;;;;;;12.55;84.70;102351.53;6099713;19;20002;-69
2023/06/07 04:47:36;;;;;;;14.00;5.72;;;;;;;12.59;84.52;102353.22;6098543;19;20011;-69
2023/06/07 04:49:43;;;;;;;12.20;6.57;;;;;;;12.56;84.29;102354.16;6095920;19;20021;-69
2023/06/07 04:51:50;;;;;;;16.00;5.72;;;;;;;12.55;83.81;102352.41;6097622;19;20013;-70
2023/06/07 04:53:58;;;;;;;15.27;5.65;;;;;;;12.57;83.67;102352.38;6091012;19;20011;-71
2023/06/07 04:56:03;;;;;;;13.07;5.57;;;;;;;12.56;83.50;102351.53;6097604;19;20031;-71
2023/06/07 04:58:09;;;;;;;12.68;6.10;;;;;;;12.61;83.44;102349.63;6097503;19;20002;-69
2023/06/07 05:00:16;;;;;;;15.70;6.25;;;;;;;12.64;83.66;102353.97;6096857;19;20018;-71
2023/06/07 05:02:23;;;;;;;12.38;5.90;;;;;;;12.63;83.42;102352.22;6099592;19;20032;-70
2023/06/07 05:04:30;;;;;;;13.27;5.85;;;;;;;12.67;83.31;102349.47;6103086;19;20021;-69
2023/06/07 05:06:36;;;;;;;16.25;6.85;;;;;;;12.74;83.33;102353.69;6104477;19;20591;-71
2023/06/07 05:08:41;;;;;;;10.20;5.28;;;;;;;12.80;83.15;102357.94;6107761;19;20007;-69
2023/06/07 05:10:47;;;;;;;16.23;5.55;;;;;;;12.81;82.77;102354.38;6100848;19;20027;-69
2023/06/07 05:12:55;;;;;;;14.60;6.03;;;;;;;12.86;82.12;102347.22;6097698;19;20125;-70
2023/06/07 05:15:02;;;;;;;15.88;5.47;;;;;;;12.86;81.81;102343.72;6092476;19;20039;-70
2023/06/07 05:17:08;;;;;;;12.95;5.25;;;;;;;12.89;82.02;102341.00;6095017;19;20460;-69
2023/06/07 05:19:16;;;;;;;15.05;6.95;;;;;;;12.93;81.99;102343.53;6096257;19;20023;-69
2023/06/07 05:21:24;;;;;;;16.83;6.32;;;;;;;12.93;81.31;102346.16;6099497;19;20039;-69
2023/06/07 05:23:31;;;;;;;17.85;6.05;;;;;;;12.94;81.62;102342.63;6099518;19;20043;-70
2023/06/07 05:25:36;;;;;;;15.43;6.10;;;;;;;13.04;81.45;102353.81;6096554;19;20359;-70
2023/06/07 05:27:43;;;;;;;13.75;6.68;;;;;;;13.04;81.13;102358.22;6094437;19;20027;-69
2023/06/07 05:30:09;;;;;;;13.30;5.55;;;;;;;13.04;80.68;102355.59;6092871;19;20361;-69
2023/06/07 05:32:14;;;;;;;14.07;5.35;;;;;;;13.09;80.79;102353.69;6095792;19;20002;-70
2023/06/07 05:34:24;;;;;;;13.93;5.53;;;;;;;13.11;80.39;102350.09;6095579;19;20082;-70
2023/06/07 05:36:34;;;;;;;20.63;7.20;;;;;;;13.18;80.27;102351.66;6090237;19;20018;-71
2023/06/07 05:38:40;;;;;;;16.15;6.72;;;;;;;13.24;79.95;102347.09;6091974;19;20358;-70
2023/06/07 05:40:45;;;;;;;18.27;6.22;;;;;;;13.51;79.53;102350.81;6093720;19;20011;-71
2023/06/07 05:42:50;;;;;;;16.63;5.68;;;;;;;13.62;78.97;102351.34;6095186;19;20368;-69
2023/06/07 05:44:57;;;;;;;14.20;5.43;;;;;;;13.77;78.81;102348.25;6093416;19;20083;-70
2023/06/07 05:47:02;;;;;;;14.85;5.65;;;;;;;13.81;78.33;102351.66;6094367;19;20003;-70
2023/06/07 05:49:07;;;;;;;17.63;5.55;;;;;;;13.78;77.57;102349.13;6094218;19;20030;-70
2023/06/07 05:51:16;;;;;;;17.70;6.28;;;;;;;13.77;77.78;102355.31;6090448;19;20011;-70
2023/06/07 05:53:24;;;;;;;13.07;5.63;;;;;;;13.81;77.15;102351.66;6089404;19;20003;-69
2023/06/07 05:55:32;;;;;;;11.27;6.20;;;;;;;13.79;77.47;102348.19;6090412;19;20055;-70
2023/06/07 05:57:38;;;;;;;13.80;5.18;;;;;;;13.94;77.43;102345.09;6092841;19;20027;-70
2023/06/07 05:59:42;;;;;;;21.42;5.85;;;;;;;13.92;76.84;102341.63;6090025;19;20002;-74
2023/06/07 06:01:48;;;;;;;14.25;5.57;;;;;;;14.55;75.70;102355.53;6095605;19;20021;-74
2023/06/07 06:03:56;;;;;;;11.55;4.47;;;;;;;14.60;75.27;102350.97;6096869;19;20416;-74
2023/06/07 06:06:01;;;;;;;12.43;5.35;;;;;;;14.95;74.15;102345.38;6093456;19;20084;-75
2023/06/07 06:08:08;;;;;;;15.70;5.60;;;;;;;15.03;73.44;102349.47;6103289;19;20110;-73
2023/06/07 06:10:14;;;;;;;15.68;6.03;;;;;;;15.16;72.73;102349.91;6102648;19;20006;-73
2023/06/07 06:12:19;;;;;;;12.77;5.47;;;;;;;15.45;71.68;102340.91;6105866;19;20064;-75
2023/06/07 06:14:25;;;;;;;10.75;4.75;;;;;;;15.28;71.45;102340.69;6108715;19;20003;-74
2023/06/07 06:16:32;;;;;;;15.13;5.50;;;;;;;15.35;71.75;102339.56;6102178;19;20433;-73
2023/06/07 06:18:37;;;;;;;13.13;4.68;;;;;;;14.89;71.97;102349.13;6104543;19;20010;-74
2023/06/07 06:20:42;;;;;;;17.27;5.25;;;;;;;14.81;72.71;102356.47;6106396;19;20122;-73
2023/06/07 06:22:47;;;;;;;21.23;5.55;;;;;;;14.56;72.98;102353.75;6107205;19;20171;-74
2023/06/07 06:24:57;;;;;;;11.20;4.57;;;;;;;14.33;73.90;102362.41;6107091;19;20546;-73
2023/06/07 06:27:02;;;;;;;14.23;5.15;;;;;;;14.27;73.92;102369.63;6106219;19;20520;-74
2023/06/07 06:29:07;;;;;;;16.60;5.55;;;;;;;14.37;74.28;102366.69;6101284;19;20018;-73
2023/06/07 06:31:12;;;;;;;12.13;4.75;;;;;;;14.33;74.34;102362.41;6100177;19;20006;-73
2023/06/07 06:33:19;;;;;;;13.80;5.93;;;;;;;14.37;74.26;102364.91;6101277;19;20499;-74
2023/06/07 06:35:24;;;;;;;12.70;5.25;;;;;;;14.26;74.39;102362.59;6100288;19;20019;-77
2023/06/07 06:37:32;;;;;;;14.38;5.68;;;;;;;14.29;74.33;102372.22;6102877;19;20006;-78
2023/06/07 06:39:37;;;;;;;12.52;5.40;;;;;;;14.35;74.44;102373.78;6108588;19;20027;-77
2023/06/07 06:41:46;;;;;;;14.38;5.05;;;;;;;14.50;74.23;102371.53;6107186;19;20006;-78
2023/06/07 06:43:53;;;;;;;11.35;4.55;;;;;;;14.40;74.30;102378.06;6102316;19;20160;-77
2023/06/07 06:45:58;;;;;;;17.20;5.82;;;;;;;14.49;74.32;102380.38;6106775;19;20423;-76
2023/06/07 06:48:03;;;;;;;15.05;5.15;;;;;;;14.95;73.77;102385.09;6104541;19;20054;-77
2023/06/07 06:50:14;;;;;;;15.40;5.68;;;;;;;15.77;71.63;102374.22;6105374;19;20014;-77
2023/06/07 06:52:35;;;;;;;;;;;;;;;16.33;69.89;102366.75;6094534;19;20015;-77
2023/06/07 06:54:40;;;;;;;13.07;5.88;;;;;;;16.66;68.66;102370.66;6107569;19;19994;-78
2023/06/07 06:56:48;;;;;;;16.83;5.18;;;;;;;17.02;67.01;102370.06;6103517;19;19998;-79
2023/06/07 06:58:54;;;;;;;16.92;5.30;;;;;;;16.72;66.88;102380.19;6103621;19;20011;-77
2023/06/07 07:01:04;;;;;;;14.23;5.35;;;;;;;16.97;66.40;102380.03;6099082;19;20371;-76
2023/06/07 07:03:09;;;;;;;11.55;4.60;;;;;;;17.16;64.86;102371.28;6104684;19;20769;-77
2023/06/07 07:05:15;;;;;;;14.80;5.03;;;;;;;17.65;64.79;102371.75;6104868;19;20007;-78
2023/06/07 07:07:22;;;;;;;11.88;4.93;;;;;;;17.78;64.99;102372.91;6101699;19;20006;-79
2023/06/07 07:09:27;;;;;;;14.52;5.07;;;;;;;18.03;63.51;102369.09;6083842;19;20893;-77
2023/06/07 07:11:32;;;;;;;16.88;5.18;;;;;;;18.09;62.83;102366.16;6101144;19;20102;-77
2023/06/07 07:13:39;;;;;;;12.77;5.28;;;;;;;18.20;62.29;102364.72;6103429;19;20427;-75
2023/06/07 07:15:45;;;;;;;13.80;5.03;;;;;;;18.13;61.59;102367.75;6098530;19;20002;-75
2023/06/07 07:17:52;;;;;;;15.80;5.20;;;;;;;18.12;61.24;102360.72;6075748;19;20018;-75
2023/06/07 07:19:57;;;;;;;17.00;5.60;;;;;;;18.47;61.28;102368.75;6105371;19;20011;-74
2023/06/07 07:22:02;;;;;;;14.20;4.55;;;;;;;18.61;60.72;102360.94;6104776;19;20019;-74
2023/06/07 07:24:09;;;;;;;15.60;5.38;;;;;;;18.33;60.86;102364.97;6105510;19;20027;-75
2023/06/07 07:26:14;;;;;;;12.23;5.22;;;;;;;18.42;60.71;102364.50;6105900;19;20391;-77
2023/06/07 07:28:19;;;;;;;14.57;4.90;;;;;;;18.53;60.16;102355.13;6105586;19;20039;-74
2023/06/07 07:30:26;;;;;;;14.23;4.75;;;;;;;18.50;60.28;102366.81;6106123;19;20497;-75
2023/06/07 07:32:32;;;;;;;14.20;5.07;;;;;;;18.88;59.36;102360.50;6104651;19;20010;-74
2023/06/07 07:34:37;;;;;;;14.88;4.38;;;;;;;19.06;59.12;102364.88;6083482;19;20011;-73
2023/06/07 07:36:45;;;;;;;11.55;4.30;;;;;;;18.55;58.67;102361.25;6104784;19;20011;-75
2023/06/07 07:38:51;;;;;;;14.10;5.30;;;;;;;17.98;60.09;102370.22;6106085;19;20390;-74
2023/06/07 07:40:56;;;;;;;16.75;5.07;;;;;;;17.76;61.40;102366.78;6102304;19;20377;-74
2023/06/07 07:43:01;;;;;;;12.10;5.00;;;;;;;17.97;62.04;102373.78;6106061;19;20339;-74
2023/06/07 07:45:09;;;;;;;14.00;5.57;;;;;;;18.09;60.95;102368.81;6102492;19;20026;-74
2023/06/07 07:47:19;;;;;;;13.13;5.75;;;;;;;18.04;61.11;102369.06;6104148;19;20101;-74
2023/06/07 07:49:24;;;;;;;15.65;5.47;;;;;;;17.98;61.17;102366.66;6105151;19;20790;-74
2023/06/07 07:51:29;;;;;;;12.52;4.32;;;;;;;18.10;61.04;102373.22;6104204;19;20018;-75
2023/06/07 07:53:34;;;;;;;11.38;4.93;;;;;;;18.71;59.35;102367.53;6096845;19;20369;-74
2023/06/07 07:55:41;;;;;;;10.95;4.90;;;;;;;18.54;59.46;102367.53;6105078;19;20424;-74
2023/06/07 07:57:46;;;;;;;13.90;5.00;;;;;;;19.12;59.17;102363.72;6105552;19;20014;-75
2023/06/07 07:59:54;;;;;;;15.88;4.68;;;;;;;19.61;57.85;102367.28;6103392;19;20011;-74
2023/06/07 08:01:59;;;;;;;10.73;4.55;;;;;;;19.83;55.86;102377.69;6105151;19;20543;-74
2023/06/07 08:04:08;;;;;;;13.00;4.25;;;;;;;19.95;55.63;102369.00;6104947;19;20002;-75
2023/06/07 08:06:17;;;;;;;14.65;4.45;;;;;;;20.34;55.15;102381.03;6095662;19;20039;-75
2023/06/07 08:08:25;;;;;;;13.10;4.25;;;;;;;19.46;55.91;102378.81;6103952;19;20557;-78
2023/06/07 08:10:30;;;;;;;10.60;3.97;;;;;;;19.44;56.10;102375.34;6100453;19;20003;-79
2023/06/07 08:12:42;;;;;;;10.95;4.72;;;;;;;18.76;57.14;102383.31;6105251;19;20023;-79
2023/06/07 08:14:54;;;;;;;11.82;4.40;;;;;;;19.21;57.17;102379.22;6111197;19;20054;-79
2023/06/07 08:17:00;;;;;;;11.90;4.55;;;;;;;19.83;55.36;102375.03;6104301;19;20415;-79
2023/06/07 08:19:16;;;;;;;12.63;4.43;;;;;;;20.03;55.06;102365.88;6108149;19;20385;-78
2023/06/07 08:21:35;;;;;;;19.20;10.90;;;;;;;20.46;54.82;102365.25;6109035;19;20015;-79
2023/06/07 08:23:41;;;;;;;15.13;4.75;;;;;;;21.03;54.11;102355.63;6119476;19;20031;-80
2023/06/07 08:25:46;;;;;;;12.00;4.30;;;;;;;21.26;52.43;102353.38;6122091;19;20016;-78
2023/06/07 08:27:51;;;;;;;12.38;4.90;;;;;;;21.08;51.97;102347.31;6118670;19;20053;-81
2023/06/07 08:29:58;;;;;;;10.07;4.45;;;;;;;21.02;51.87;102359.25;6125786;19;20002;-79
2023/06/07 08:32:03;;;;;;;11.45;4.50;;;;;;;21.45;51.55;102358.47;6121656;19;20010;-79
2023/06/07 08:34:10;;;;;;;12.05;4.50;;;;;;;21.08;51.39;102355.34;6122446;19;19999;-79
2023/06/07 08:36:22;;;;;;;13.32;4.60;;;;;;;21.49;50.97;102349.31;6117116;19;20006;-79
2023/06/07 08:38:27;;;;;;;11.43;5.03;;;;;;;21.63;51.58;102349.28;6109342;19;20607;-75
2023/06/07 08:40:37;;;;;;;13.20;4.43;;;;;;;22.10;51.03;102348.03;6105810;19;20518;-74
2023/06/07 08:42:43;;;;;;;13.40;4.38;;;;;;;22.55;48.99;102353.16;6099369;19;20051;-73
2023/06/07 08:44:48;;;;;;;10.02;4.40;;;;;;;21.86;48.39;102350.50;6100038;19;20109;-74
2023/06/07 08:46:57;;;;;;;14.30;5.30;;;;;;;21.78;48.74;102354.63;6098237;19;20014;-74
2023/06/07 08:49:06;;;;;;;12.15;4.45;;;;;;;21.97;49.54;102348.94;6097221;19;20078;-74
2023/06/07 08:51:17;;;;;;;13.25;4.82;;;;;;;22.12;49.67;102350.63;6102526;19;20307;-74
2023/06/07 08:53:32;;;;;;;11.57;4.43;;;;;;;22.04;48.17;102356.47;6094948;19;20027;-74
2023/06/07 08:55:38;;;;;;;12.98;4.85;;;;;;;21.95;48.47;102345.50;6100763;19;20006;-75
2023/06/07 08:57:43;;;;;;;9.48;4.35;;;;;;;22.44;49.13;102345.00;6099851;19;20749;-74
2023/06/07 08:59:50;;;;;;;14.98;5.47;;;;;;;22.39;48.20;102349.81;6097989;19;20015;-75
2023/06/07 09:01:55;;;;;;;15.35;4.70;;;;;;;22.61;47.85;102347.38;6094077;19;20006;-77
2023/06/07 09:04:05;;;;;;;9.80;4.65;;;;;;;22.57;47.66;102345.88;6092667;19;20543;-75
2023/06/07 09:06:14;;;;;;;10.10;4.13;;;;;;;22.94;47.46;102349.59;6097256;19;20081;-74
2023/06/07 09:08:20;;;;;;;12.65;5.18;;;;;;;22.34;47.48;102355.47;6097851;19;20499;-74
2023/06/07 09:10:25;;;;;;;11.27;4.53;;;;;;;22.58;48.54;102350.28;6099181;19;20046;-75
2023/06/07 09:12:34;;;;;;;10.60;4.55;;;;;;;23.08;47.38;102345.97;6097467;19;20014;-75
2023/06/07 09:14:40;;;;;;;12.82;4.82;;;;;;;22.82;46.99;102354.94;6094497;19;20027;-73
2023/06/07 09:16:55;;;;;;;15.93;5.03;;;;;;;23.34;46.63;102351.34;6094171;19;20114;-75
2023/06/07 09:19:00;;;;;;;12.90;5.00;;;;;;;23.24;45.30;102356.50;6098099;19;20015;-75
2023/06/07 09:21:23;;;;;;;13.13;4.28;;;;;;;23.12;45.18;102360.06;6096929;19;20035;-75
2023/06/07 09:23:32;;;;;;;11.48;4.88;;;;;;;22.96;45.20;102347.69;6098112;19;20019;-75
2023/06/07 09:25:38;;;;;;;11.20;4.32;;;;;;;22.76;45.38;102351.72;6100743;19;20006;-74
2023/06/07 09:27:55;;;;;;;12.38;5.40;;;;;;;22.84;46.01;102353.00;6073937;19;20007;-76
2023/06/07 09:30:07;;;;;;;12.20;4.90;;;;;;;22.65;46.07;102350.72;6093572;19;20014;-75
2023/06/07 09:32:20;;;;;;;15.70;5.30;;;;;;;22.56;46.39;102354.88;6097295;19;20404;-75
2023/06/07 09:34:26;;;;;;;;;;;;;;;22.65;46.63;102345.38;6096959;19;20704;-75
2023/06/07 09:36:37;;;;;;;12.38;5.18;;;;;;;22.90;46.81;102342.72;6090370;19;20360;-77
2023/06/07 09:38:42;;;;;;;16.60;5.28;;;;;;;23.05;46.42;102348.88;6091276;19;20625;-75
2023/06/07 09:40:53;;;;;;;14.75;4.70;;;;;;;23.38;46.70;102345.66;6098996;19;20432;-75
2023/06/07 09:43:03;;;;;;;11.77;4.90;;;;;;;23.41;46.10;102342.75;6098618;19;20623;-76
2023/06/07 09:45:12;;;;;;;18.48;5.00;;;;;;;23.48;44.87;102340.47;6097560;19;20405;-75